Time;durP1;ratioP1;P1;durP2;ratioP2;P2;SDS_P1;SDS_P2;PMS_P1;PMS_P2;Temp;Humidity;BMP_temperature;BMP_pressure;BME280_temperature;BME280_humidity;BME280_pressure;Samples;Min_cycle;Max_cycle;Signal;HPM_P1;HPM_P2
2024/01/31 00:00:38;;;;;;;14.15;5.90;;;;;;;;;;4912455;28;20075;-77
2024/01/31 00:03:06;;;;;;;14.98;5.65;;;;;;;;;;4947132;28;21352;-75
2024/01/31 00:05:35;;;;;;;13.77;5.40;;;;;;;;;;4944894;28;20626;-77
2024/01/31 00:08:02;;;;;;;13.27;5.20;;;;;;;;;;4930924;28;20163;-75
2024/01/31 00:10:29;;;;;;;15.85;5.65;;;;;;;;;;4929188;28;20038;-75
2024/01/31 00:12:55;;;;;;;13.38;5.55;;;;;;;;;;4928178;28;20455;-75
2024/01/31 00:15:22;;;;;;;15.65;5.55;;;;;;;;;;4931069;28;20041;-76
2024/01/31 00:17:49;;;;;;;15.65;5.20;;;;;;;;;;4927392;28;20042;-75
2024/01/31 00:20:15;;;;;;;11.82;3.85;;;;;;;;;;4924603;28;20037;-75
2024/01/31 00:22:42;;;;;;;;;;;;;;;;;;4923748;28;20092;-74
2024/01/31 00:25:10;;;;;;;13.15;4.43;;;;;;;;;;4923072;28;19917;-78
2024/01/31 00:27:37;;;;;;;13.43;4.40;;;;;;;;;;4927552;28;20036;-77
2024/01/31 00:30:12;;;;;;;13.18;4.13;;;;;;;;;;4963072;28;20038;-75
2024/01/31 00:32:38;;;;;;;13.05;4.07;;;;;;;;;;4955638;28;20037;-79
2024/01/31 00:35:06;;;;;;;12.90;3.60;;;;;;;;;;4975289;28;20018;-76
2024/01/31 00:37:36;;;;;;;11.68;3.28;;;;;;;;;;4966475;28;20038;-75
2024/01/31 00:40:05;;;;;;;15.32;3.17;;;;;;;;;;4972205;28;20117;-78
2024/01/31 00:42:32;;;;;;;10.55;2.70;;;;;;;;;;4951005;28;20601;-75
2024/01/31 00:44:58;;;;;;;;;;;;;;;;;;4973717;28;20727;-78
2024/01/31 00:47:25;;;;;;;10.05;2.88;;;;;;;;;;4956968;28;19913;-78
2024/01/31 00:49:51;;;;;;;11.93;3.00;;;;;;;;;;4976447;28;20557;-78
2024/01/31 00:52:19;;;;;;;11.60;3.38;;;;;;;;;;4956255;28;20035;-76
2024/01/31 00:54:45;;;;;;;16.25;3.70;;;;;;;;;;4971336;28;20049;-77
2024/01/31 00:57:11;;;;;;;12.57;3.58;;;;;;;;;;4974755;28;20690;-76
2024/01/31 00:59:40;;;;;;;12.93;3.47;;;;;;;;;;4955688;28;20570;-76
2024/01/31 01:02:06;;;;;;;14.55;3.70;;;;;;;;;;4959473;28;20573;-76
2024/01/31 01:04:33;;;;;;;11.07;3.33;;;;;;;;;;4952628;28;20038;-76
2024/01/31 01:07:00;;;;;;;12.88;3.60;;;;;;;;;;4955841;28;20057;-75
2024/01/31 01:09:28;;;;;;;10.43;3.60;;;;;;;;;;4949595;28;20045;-76
2024/01/31 01:11:57;;;;;;;10.40;3.17;;;;;;;;;;4952758;28;20058;-76
2024/01/31 01:14:23;;;;;;;13.07;3.80;;;;;;;;;;4952733;28;20050;-76
2024/01/31 01:16:52;;;;;;;10.45;2.80;;;;;;;;;;4965394;28;20045;-77
2024/01/31 01:19:20;;;;;;;13.63;3.38;;;;;;;;;;4984160;28;20128;-77
2024/01/31 01:21:47;;;;;;;12.93;3.53;;;;;;;;;;4973449;28;20057;-77
2024/01/31 01:24:15;;;;;;;12.77;3.72;;;;;;;;;;4992817;28;20072;-76
2024/01/31 01:26:41;;;;;;;12.07;3.10;;;;;;;;;;4964607;28;20042;-77
2024/01/31 01:29:08;;;;;;;11.05;3.03;;;;;;;;;;4995761;28;20132;-75
2024/01/31 01:31:34;;;;;;;12.88;3.20;;;;;;;;;;4972421;28;20049;-76
2024/01/31 01:34:01;;;;;;;11.48;2.70;;;;;;;;;;4994202;28;20018;-77
2024/01/31 01:36:27;;;;;;;;;;;;;;;;;;4988704;28;20553;-76
2024/01/31 01:38:55;;;;;;;8.52;2.20;;;;;;;;;;4971777;28;19913;-76
2024/01/31 01:41:22;;;;;;;11.23;2.42;;;;;;;;;;4968063;28;20030;-76
2024/01/31 01:43:49;;;;;;;9.60;2.58;;;;;;;;;;5007045;28;20042;-78
2024/01/31 01:46:20;;;;;;;9.82;2.67;;;;;;;;;;4974472;28;20509;-76
2024/01/31 01:48:47;;;;;;;12.23;2.92;;;;;;;;;;4992168;28;20724;-77
2024/01/31 01:51:19;;;;;;;10.75;2.50;;;;;;;;;;4993212;28;20041;-76
2024/01/31 01:53:50;;;;;;;8.45;2.60;;;;;;;;;;4989605;28;20531;-76
2024/01/31 01:56:18;;;;;;;12.50;2.72;;;;;;;;;;4990835;28;20026;-76
2024/01/31 01:58:48;;;;;;;9.38;2.30;;;;;;;;;;4992250;28;20736;-77
2024/01/31 02:01:16;;;;;;;9.98;2.33;;;;;;;;;;4970822;28;20087;-76
2024/01/31 02:03:43;;;;;;;8.40;1.92;;;;;;;;;;4991000;28;20034;-76
2024/01/31 02:06:10;;;;;;;10.52;2.38;;;;;;;;;;4987845;28;20590;-76
2024/01/31 02:08:37;;;;;;;8.07;2.05;;;;;;;;;;4970847;28;20378;-77
2024/01/31 02:11:06;;;;;;;9.50;2.25;;;;;;;;;;4991238;28;20118;-76
2024/01/31 02:13:32;;;;;;;9.55;2.42;;;;;;;;;;4991206;28;20399;-76
2024/01/31 02:15:59;;;;;;;8.70;2.15;;;;;;;;;;4969200;28;20052;-76
2024/01/31 02:18:26;;;;;;;12.20;2.60;;;;;;;;;;4948238;28;20081;-77
2024/01/31 02:20:53;;;;;;;10.77;2.60;;;;;;;;;;4986848;28;20033;-76
2024/01/31 02:23:19;;;;;;;11.05;2.50;;;;;;;;;;4986048;28;20030;-76
2024/01/31 02:25:45;;;;;;;;;;;;;;;;;;4988876;28;20022;-77
2024/01/31 02:28:11;;;;;;;9.60;2.75;;;;;;;;;;4970878;28;19991;-76
2024/01/31 02:30:39;;;;;;;;;;;;;;;;;;4969992;28;20033;-76
2024/01/31 02:33:06;;;;;;;;;;;;;;;;;;4973119;28;19976;-76
2024/01/31 02:35:33;;;;;;;11.15;2.30;;;;;;;;;;4970046;28;19963;-76
2024/01/31 02:38:01;;;;;;;9.15;2.30;;;;;;;;;;4970477;28;20363;-77
2024/01/31 02:40:32;;;;;;;10.57;2.70;;;;;;;;;;4988473;28;20659;-78
2024/01/31 02:43:00;;;;;;;10.52;2.97;;;;;;;;;;4993223;28;20057;-77
2024/01/31 02:45:27;;;;;;;11.38;2.92;;;;;;;;;;4988409;28;20021;-78
2024/01/31 02:47:54;;;;;;;11.18;2.67;;;;;;;;;;4971105;28;20145;-77
2024/01/31 02:50:20;;;;;;;;;;;;;;;;;;4988427;28;20029;-77
2024/01/31 02:52:47;;;;;;;13.50;2.53;;;;;;;;;;4991600;28;19963;-77
2024/01/31 02:55:13;;;;;;;10.00;2.38;;;;;;;;;;4956797;28;20495;-77
2024/01/31 02:57:39;;;;;;;10.40;2.13;;;;;;;;;;4988341;28;20290;-76
2024/01/31 03:00:11;;;;;;;11.15;2.50;;;;;;;;;;4989289;28;20500;-76
2024/01/31 03:02:40;;;;;;;9.00;2.10;;;;;;;;;;4987235;28;20045;-76
2024/01/31 03:05:07;;;;;;;10.45;2.58;;;;;;;;;;4971883;28;20249;-78
2024/01/31 03:07:33;;;;;;;12.43;2.60;;;;;;;;;;4967909;28;20041;-77
2024/01/31 03:09:59;;;;;;;10.88;2.65;;;;;;;;;;4972876;28;20034;-77
2024/01/31 03:12:25;;;;;;;10.13;2.25;;;;;;;;;;4987739;28;20025;-77
2024/01/31 03:14:53;;;;;;;12.05;2.47;;;;;;;;;;4975624;28;20175;-76
2024/01/31 03:17:20;;;;;;;8.70;2.10;;;;;;;;;;4988293;28;20731;-77
2024/01/31 03:19:46;;;;;;;10.10;2.30;;;;;;;;;;4974199;28;20049;-77
2024/01/31 03:22:12;;;;;;;11.88;2.40;;;;;;;;;;4972810;28;20484;-76
2024/01/31 03:24:40;;;;;;;8.75;2.17;;;;;;;;;;4968585;28;20044;-76
2024/01/31 03:27:06;;;;;;;10.38;2.40;;;;;;;;;;4988317;28;20116;-77
2024/01/31 03:29:33;;;;;;;10.60;2.60;;;;;;;;;;4990797;28;20038;-77
2024/01/31 03:31:59;;;;;;;9.15;1.92;;;;;;;;;;4973140;28;20030;-76
2024/01/31 03:34:27;;;;;;;9.48;2.30;;;;;;;;;;4972253;28;20061;-77
2024/01/31 03:36:55;;;;;;;10.73;2.20;;;;;;;;;;4990045;28;20026;-76
2024/01/31 03:39:21;;;;;;;10.23;2.40;;;;;;;;;;4954712;28;20034;-76
2024/01/31 03:41:49;;;;;;;9.70;2.15;;;;;;;;;;4968840;28;20592;-76
2024/01/31 03:44:17;;;;;;;8.60;2.22;;;;;;;;;;4989696;28;20052;-76
2024/01/31 03:46:46;;;;;;;8.75;2.20;;;;;;;;;;4986963;28;20065;-76
2024/01/31 03:49:12;;;;;;;12.00;3.05;;;;;;;;;;4989656;28;20034;-76
2024/01/31 03:51:39;;;;;;;7.78;2.20;;;;;;;;;;4987836;28;20880;-76
2024/01/31 03:54:05;;;;;;;10.13;2.63;;;;;;;;;;4972287;28;20144;-76
2024/01/31 03:56:32;;;;;;;8.77;2.58;;;;;;;;;;4989442;28;20049;-76
2024/01/31 03:59:03;;;;;;;10.68;2.67;;;;;;;;;;4987279;28;20076;-76
2024/01/31 04:01:29;;;;;;;10.25;2.50;;;;;;;;;;4986085;28;20800;-77
2024/01/31 04:03:56;;;;;;;9.63;2.50;;;;;;;;;;4990904;28;20065;-77
2024/01/31 04:06:22;;;;;;;10.43;1.90;;;;;;;;;;4971583;28;20048;-77
2024/01/31 04:08:50;;;;;;;7.85;2.17;;;;;;;;;;4990133;28;20761;-78
2024/01/31 04:11:16;;;;;;;7.80;2.03;;;;;;;;;;4970580;28;20037;-76
2024/01/31 04:13:47;;;;;;;13.85;2.53;;;;;;;;;;4959733;28;20052;-77
2024/01/31 04:16:17;;;;;;;8.68;2.33;;;;;;;;;;4969211;28;20050;-77
2024/01/31 04:18:43;;;;;;;8.57;2.55;;;;;;;;;;4956755;28;20045;-78
2024/01/31 04:21:10;;;;;;;11.18;2.80;;;;;;;;;;4980515;28;20026;-78
2024/01/31 04:23:37;;;;;;;10.52;3.00;;;;;;;;;;4953598;28;20042;-76
2024/01/31 04:26:05;;;;;;;8.88;2.58;;;;;;;;;;4962752;28;20038;-76
2024/01/31 04:28:31;;;;;;;10.75;2.83;;;;;;;;;;4972593;28;20044;-76
2024/01/31 04:30:57;;;;;;;11.95;2.60;;;;;;;;;;4962007;28;20522;-76
2024/01/31 04:33:24;;;;;;;9.95;2.38;;;;;;;;;;4956042;28;20085;-76
2024/01/31 04:35:52;;;;;;;7.72;2.00;;;;;;;;;;4958894;28;20042;-76
2024/01/31 04:38:21;;;;;;;9.55;3.10;;;;;;;;;;4977885;28;20030;-77
2024/01/31 04:40:48;;;;;;;11.40;3.92;;;;;;;;;;4958019;28;20048;-76
2024/01/31 04:43:17;;;;;;;10.30;3.50;;;;;;;;;;4959488;28;20039;-76
2024/01/31 04:45:44;;;;;;;10.35;3.42;;;;;;;;;;4940680;28;20121;-76
2024/01/31 04:48:10;;;;;;;9.60;2.88;;;;;;;;;;4979690;28;20251;-75
2024/01/31 04:50:38;;;;;;;9.57;3.10;;;;;;;;;;4977531;28;20706;-76
2024/01/31 04:53:05;;;;;;;9.70;2.78;;;;;;;;;;4959231;28;20096;-78
2024/01/31 04:55:34;;;;;;;10.63;2.88;;;;;;;;;;4970182;28;20033;-76
2024/01/31 04:58:02;;;;;;;8.57;2.50;;;;;;;;;;4943791;28;20582;-76
2024/01/31 05:00:31;;;;;;;8.27;2.38;;;;;;;;;;4956537;28;20030;-77
2024/01/31 05:02:59;;;;;;;11.65;2.90;;;;;;;;;;4959502;28;20115;-76
2024/01/31 05:05:25;;;;;;;9.25;2.78;;;;;;;;;;4956722;28;20034;-76
2024/01/31 05:07:52;;;;;;;8.85;2.90;;;;;;;;;;4979162;28;20041;-77
2024/01/31 05:10:20;;;;;;;9.43;2.63;;;;;;;;;;4979491;28;20076;-77
2024/01/31 05:12:46;;;;;;;10.98;2.80;;;;;;;;;;4955043;28;20030;-77
2024/01/31 05:15:14;;;;;;;11.18;2.55;;;;;;;;;;4976812;28;20069;-77
2024/01/31 05:17:42;;;;;;;10.43;2.40;;;;;;;;;;4988557;28;20053;-78
2024/01/31 05:20:08;;;;;;;8.07;1.90;;;;;;;;;;4995454;28;20057;-78
2024/01/31 05:22:34;;;;;;;;;;;;;;;;;;4974261;28;20117;-78
2024/01/31 05:25:02;;;;;;;10.32;1.88;;;;;;;;;;4994015;28;19913;-77
2024/01/31 05:27:29;;;;;;;8.60;2.22;;;;;;;;;;4993800;28;20032;-77
2024/01/31 05:29:57;;;;;;;7.18;2.17;;;;;;;;;;4991401;28;20037;-77
2024/01/31 05:32:25;;;;;;;8.57;2.10;;;;;;;;;;4967915;28;20093;-76
2024/01/31 05:34:51;;;;;;;10.60;2.40;;;;;;;;;;4994399;28;20033;-76
2024/01/31 05:37:17;;;;;;;9.10;2.40;;;;;;;;;;4973202;28;20018;-76
2024/01/31 05:39:44;;;;;;;11.52;2.42;;;;;;;;;;4968800;28;20864;-76
2024/01/31 05:42:13;;;;;;;8.82;2.30;;;;;;;;;;4996005;28;20152;-78
2024/01/31 05:44:39;;;;;;;9.20;2.17;;;;;;;;;;4970980;28;20049;-76
2024/01/31 05:47:07;;;;;;;9.25;2.20;;;;;;;;;;4994798;28;20037;-76
2024/01/31 05:49:34;;;;;;;10.65;2.17;;;;;;;;;;4967487;28;20057;-79
2024/01/31 05:52:02;;;;;;;9.98;3.10;;;;;;;;;;4991745;28;20627;-77
2024/01/31 05:54:28;;;;;;;10.70;2.55;;;;;;;;;;4969269;28;20505;-77
2024/01/31 05:56:54;;;;;;;11.85;2.47;;;;;;;;;;4974995;28;20037;-77
2024/01/31 05:59:21;;;;;;;7.78;2.22;;;;;;;;;;4968698;28;20042;-77
2024/01/31 06:01:47;;;;;;;8.48;2.33;;;;;;;;;;4970752;28;20033;-77
2024/01/31 06:04:14;;;;;;;10.77;2.65;;;;;;;;;;4992371;28;20085;-77
2024/01/31 06:06:41;;;;;;;10.25;2.88;;;;;;;;;;4989695;28;20645;-77
2024/01/31 06:09:10;;;;;;;11.05;2.53;;;;;;;;;;4969843;28;20065;-77
2024/01/31 06:11:37;;;;;;;11.20;2.65;;;;;;;;;;4987358;28;20034;-77
2024/01/31 06:14:04;;;;;;;8.82;2.45;;;;;;;;;;4995883;28;20057;-77
2024/01/31 06:16:32;;;;;;;11.13;2.70;;;;;;;;;;4968673;28;20811;-77
2024/01/31 06:18:59;;;;;;;10.02;2.60;;;;;;;;;;4971656;28;20785;-77
2024/01/31 06:21:25;;;;;;;8.88;2.35;;;;;;;;;;4965782;28;20251;-77
2024/01/31 06:23:51;;;;;;;11.32;2.33;;;;;;;;;;4969406;28;20135;-77
2024/01/31 06:26:18;;;;;;;8.73;2.25;;;;;;;;;;4989877;28;20707;-77
2024/01/31 06:28:44;;;;;;;10.50;2.47;;;;;;;;;;4970450;28;20042;-76
2024/01/31 06:31:24;;;;;;;;;;;;;;;;;;4987767;28;20214;-77
2024/01/31 06:33:50;;;;;;;12.50;3.20;;;;;;;;;;4986965;28;20380;-76
2024/01/31 06:36:19;;;;;;;8.20;2.22;;;;;;;;;;4989198;28;20093;-77
2024/01/31 06:38:45;;;;;;;10.70;2.90;;;;;;;;;;4969692;28;20042;-76
2024/01/31 06:41:11;;;;;;;;;;;;;;;;;;4990928;28;20045;-78
2024/01/31 06:43:37;;;;;;;6.95;2.10;;;;;;;;;;4986286;28;19913;-76
2024/01/31 06:46:05;;;;;;;9.30;3.05;;;;;;;;;;4983241;28;20117;-78
2024/01/31 06:48:32;;;;;;;8.15;2.67;;;;;;;;;;4965857;28;20022;-77
2024/01/31 06:51:05;;;;;;;12.38;3.38;;;;;;;;;;4968084;28;20033;-76
2024/01/31 06:53:31;;;;;;;14.30;3.10;;;;;;;;;;4987237;28;20085;-76
2024/01/31 06:56:00;;;;;;;8.90;2.75;;;;;;;;;;4969011;28;20765;-78
2024/01/31 06:58:26;;;;;;;8.50;2.78;;;;;;;;;;4968435;28;20029;-76
2024/01/31 07:00:55;;;;;;;;;;;;;;;;;;4990913;28;20029;-76
2024/01/31 07:03:23;;;;;;;10.02;2.38;;;;;;;;;;4970411;28;20079;-75
2024/01/31 07:05:49;;;;;;;8.70;2.20;;;;;;;;;;4983973;28;20041;-76
2024/01/31 07:08:15;;;;;;;10.20;2.42;;;;;;;;;;4987779;28;20034;-76
2024/01/31 07:10:42;;;;;;;11.30;3.08;;;;;;;;;;4971053;28;21447;-76
2024/01/31 07:13:10;;;;;;;13.00;2.90;;;;;;;;;;4974371;28;20072;-76
2024/01/31 07:15:38;;;;;;;13.20;3.08;;;;;;;;;;4987431;28;20119;-77
2024/01/31 07:18:05;;;;;;;13.23;3.28;;;;;;;;;;4972578;28;20052;-76
2024/01/31 07:20:33;;;;;;;13.75;3.10;;;;;;;;;;4970094;28;20128;-77
2024/01/31 07:22:59;;;;;;;12.30;3.38;;;;;;;;;;4990721;28;20061;-76
2024/01/31 07:25:25;;;;;;;14.20;3.60;;;;;;;;;;4969690;28;20124;-76
2024/01/31 07:27:51;;;;;;;11.15;3.55;;;;;;;;;;4969121;28;20112;-76
2024/01/31 07:30:17;;;;;;;11.57;3.58;;;;;;;;;;4988693;28;20758;-77
2024/01/31 07:32:45;;;;;;;9.27;3.35;;;;;;;;;;4988266;28;20030;-78
2024/01/31 07:35:11;;;;;;;14.40;3.60;;;;;;;;;;4969109;28;20041;-78
2024/01/31 07:37:37;;;;;;;;;;;;;;;;;;4970640;28;20049;-78
2024/01/31 07:40:05;;;;;;;12.90;3.60;;;;;;;;;;4988443;28;20019;-75
2024/01/31 07:42:33;;;;;;;11.95;3.33;;;;;;;;;;4968216;28;20034;-78
2024/01/31 07:45:00;;;;;;;13.73;4.43;;;;;;;;;;4989105;28;20580;-78
2024/01/31 07:47:27;;;;;;;9.73;3.10;;;;;;;;;;4990312;28;20034;-78
2024/01/31 07:49:54;;;;;;;12.40;3.55;;;;;;;;;;4973169;28;20026;-78
2024/01/31 07:52:21;;;;;;;10.65;3.60;;;;;;;;;;4970957;28;20034;-78
2024/01/31 07:54:48;;;;;;;12.98;3.70;;;;;;;;;;4992403;28;20018;-78
2024/01/31 07:57:14;;;;;;;13.20;3.45;;;;;;;;;;4968828;28;20045;-77
2024/01/31 07:59:40;;;;;;;11.20;2.95;;;;;;;;;;4975081;28;22241;-78
2024/01/31 08:02:08;;;;;;;15.13;3.58;;;;;;;;;;4977327;28;21020;-76
2024/01/31 08:04:35;;;;;;;11.57;2.90;;;;;;;;;;4970529;28;20097;-76
2024/01/31 08:07:03;;;;;;;13.80;3.28;;;;;;;;;;4970642;28;20033;-76
2024/01/31 08:09:29;;;;;;;11.13;2.60;;;;;;;;;;4989269;28;20814;-76
2024/01/31 08:11:56;;;;;;;11.48;3.15;;;;;;;;;;4974283;28;20527;-76
2024/01/31 08:14:24;;;;;;;12.27;3.58;;;;;;;;;;4952874;28;20406;-76
2024/01/31 08:16:51;;;;;;;12.02;3.42;;;;;;;;;;4972747;28;20134;-76
2024/01/31 08:19:19;;;;;;;13.73;3.55;;;;;;;;;;4970542;28;20026;-76
2024/01/31 08:21:46;;;;;;;14.10;3.83;;;;;;;;;;4968051;28;20033;-76
2024/01/31 08:24:16;;;;;;;14.65;3.53;;;;;;;;;;4966974;28;20053;-76
2024/01/31 08:26:43;;;;;;;13.27;3.50;;;;;;;;;;4969088;28;20034;-76
2024/01/31 08:29:11;;;;;;;11.43;3.17;;;;;;;;;;4969084;28;20481;-76
2024/01/31 08:31:38;;;;;;;11.65;3.15;;;;;;;;;;4987485;28;20069;-76
2024/01/31 08:34:06;;;;;;;10.20;3.20;;;;;;;;;;4991529;28;20103;-76
2024/01/31 08:36:33;;;;;;;11.55;2.88;;;;;;;;;;4987053;28;20033;-75
2024/01/31 08:39:01;;;;;;;13.05;3.13;;;;;;;;;;4969901;28;20030;-76
2024/01/31 08:41:27;;;;;;;10.32;2.60;;;;;;;;;;4992161;28;20097;-77
2024/01/31 08:43:54;;;;;;;9.38;2.50;;;;;;;;;;4971455;28;20033;-76
2024/01/31 08:46:22;;;;;;;10.45;2.75;;;;;;;;;;4972788;28;20040;-76
2024/01/31 08:48:49;;;;;;;10.55;2.90;;;;;;;;;;4977040;28;20037;-77
2024/01/31 08:51:16;;;;;;;10.15;2.45;;;;;;;;;;4971697;28;20092;-76
2024/01/31 08:53:44;;;;;;;11.40;2.40;;;;;;;;;;4969501;28;20788;-76
2024/01/31 08:56:14;;;;;;;11.20;2.40;;;;;;;;;;4990673;28;20076;-75
2024/01/31 08:58:41;;;;;;;9.40;2.28;;;;;;;;;;4988577;28;20879;-75
2024/01/31 09:01:08;;;;;;;10.88;2.10;;;;;;;;;;4976372;28;20044;-75
2024/01/31 09:03:35;;;;;;;11.00;2.42;;;;;;;;;;4984563;28;20893;-76
2024/01/31 09:06:02;;;;;;;;;;;;;;;;;;4993796;28;20117;-75
2024/01/31 09:08:29;;;;;;;8.52;2.45;;;;;;;;;;4987632;28;20838;-75
2024/01/31 09:10:58;;;;;;;9.30;2.45;;;;;;;;;;4993175;28;20062;-76
2024/01/31 09:13:25;;;;;;;7.93;2.63;;;;;;;;;;4982264;28;20576;-77
2024/01/31 09:15:51;;;;;;;7.25;2.20;;;;;;;;;;4969529;28;20042;-75
2024/01/31 09:18:20;;;;;;;8.43;2.20;;;;;;;;;;4988653;28;20678;-76
2024/01/31 09:20:46;;;;;;;6.88;2.00;;;;;;;;;;4989400;28;20029;-77
2024/01/31 09:23:15;;;;;;;10.88;2.33;;;;;;;;;;4991569;28;20630;-77
2024/01/31 09:25:42;;;;;;;8.48;2.53;;;;;;;;;;4969034;28;20756;-77
2024/01/31 09:28:10;;;;;;;9.63;2.25;;;;;;;;;;4986991;28;20064;-77
2024/01/31 09:30:38;;;;;;;8.65;2.03;;;;;;;;;;4989010;28;20030;-76
2024/01/31 09:33:05;;;;;;;7.18;1.83;;;;;;;;;;4972449;28;20041;-76
2024/01/31 09:35:32;;;;;;;9.45;1.80;;;;;;;;;;4986164;28;20022;-77
2024/01/31 09:37:59;;;;;;;9.48;4.03;;;;;;;;;;4993485;28;20026;-76
2024/01/31 09:40:26;;;;;;;10.35;2.30;;;;;;;;;;4969689;28;20766;-76
2024/01/31 09:42:52;;;;;;;13.65;2.65;;;;;;;;;;4988355;28;20732;-76
2024/01/31 09:45:19;;;;;;;9.90;2.33;;;;;;;;;;4973943;28;20045;-77
2024/01/31 09:47:48;;;;;;;9.38;2.08;;;;;;;;;;4994556;28;20500;-77
2024/01/31 09:50:15;;;;;;;12.05;2.30;;;;;;;;;;4967783;28;20685;-77
2024/01/31 09:52:41;;;;;;;12.65;2.70;;;;;;;;;;4968816;28;20648;-77
2024/01/31 09:55:11;;;;;;;10.18;2.42;;;;;;;;;;4974401;28;20037;-77
2024/01/31 09:57:39;;;;;;;7.53;2.17;;;;;;;;;;4971476;28;20030;-77
2024/01/31 10:00:09;;;;;;;6.97;2.08;;;;;;;;;;4989980;28;20030;-78
2024/01/31 10:02:38;;;;;;;8.88;2.17;;;;;;;;;;4967261;28;20804;-77
2024/01/31 10:05:06;;;;;;;9.50;2.30;;;;;;;;;;4974018;28;20479;-78
2024/01/31 10:07:32;;;;;;;7.47;2.05;;;;;;;;;;4955017;28;20033;-76
2024/01/31 10:10:01;;;;;;;9.73;2.28;;;;;;;;;;4992074;28;20037;-79
2024/01/31 10:12:27;;;;;;;10.68;2.92;;;;;;;;;;4968300;28;20038;-76
2024/01/31 10:14:55;;;;;;;8.68;2.30;;;;;;;;;;4971876;28;20066;-76
2024/01/31 10:17:23;;;;;;;8.88;2.83;;;;;;;;;;4969112;28;20042;-76
2024/01/31 10:19:51;;;;;;;14.30;3.30;;;;;;;;;;4991276;28;20064;-76
2024/01/31 10:22:19;;;;;;;16.55;3.20;;;;;;;;;;4959339;28;20051;-77
2024/01/31 10:24:54;;;;;;;15.27;2.58;;;;;;;;;;4966445;28;20038;-76
2024/01/31 10:27:21;;;;;;;13.63;2.58;;;;;;;;;;4968983;28;20093;-77
2024/01/31 10:29:49;;;;;;;6.90;1.58;;;;;;;;;;4970939;28;20120;-78
2024/01/31 10:32:18;;;;;;;9.48;1.88;;;;;;;;;;4975748;28;20046;-78
2024/01/31 10:34:44;;;;;;;7.93;1.73;;;;;;;;;;4983574;28;20145;-78
2024/01/31 10:37:11;;;;;;;8.82;2.00;;;;;;;;;;4970576;28;20112;-83
2024/01/31 10:39:38;;;;;;;7.50;2.10;;;;;;;;;;4975946;28;20750;-83
2024/01/31 10:42:05;;;;;;;7.05;1.77;;;;;;;;;;4976956;28;20042;-82
2024/01/31 10:44:34;;;;;;;7.85;2.20;;;;;;;;;;4975545;28;20108;-84
2024/01/31 10:47:01;;;;;;;10.90;2.30;;;;;;;;;;5000934;28;20053;-84
2024/01/31 10:49:28;;;;;;;10.05;2.05;;;;;;;;;;4978890;28;20562;-84
2024/01/31 10:52:07;;;;;;;9.90;1.95;;;;;;;;;;5001484;28;20033;-85
2024/01/31 10:54:36;;;;;;;9.80;2.47;;;;;;;;;;4978757;28;20048;-82
2024/01/31 10:57:05;;;;;;;10.43;2.58;;;;;;;;;;5001226;28;20104;-85
2024/01/31 10:59:38;;;;;;;8.13;2.20;;;;;;;;;;4994698;28;20382;-84
2024/01/31 11:02:12;;;;;;;9.13;3.03;;;;;;;;;;4982161;28;20042;-83
2024/01/31 11:04:40;;;;;;;9.18;2.42;;;;;;;;;;4982899;28;20675;-83
2024/01/31 11:07:06;;;;;;;10.07;2.45;;;;;;;;;;4974962;28;20559;-84
2024/01/31 11:09:32;;;;;;;;;;;;;;;;;;4997023;28;20038;-84
2024/01/31 11:12:06;;;;;;;9.18;3.00;;;;;;;;;;4979673;28;19925;-85
2024/01/31 11:14:35;;;;;;;10.15;3.10;;;;;;;;;;4992154;28;20145;-84
2024/01/31 11:17:14;;;;;;;8.48;2.63;;;;;;;;;;4994446;28;20081;-84
2024/01/31 11:19:43;;;;;;;9.43;2.97;;;;;;;;;;4972415;28;22546;-78
2024/01/31 11:22:09;;;;;;;8.80;2.58;;;;;;;;;;4975169;28;20037;-78
2024/01/31 11:24:40;;;;;;;9.90;2.70;;;;;;;;;;4971472;28;20370;-78
2024/01/31 11:27:06;;;;;;;9.00;2.30;;;;;;;;;;4970951;28;20034;-77
2024/01/31 11:29:32;;;;;;;12.60;3.50;;;;;;;;;;4970818;28;20038;-78
2024/01/31 11:31:59;;;;;;;12.40;4.20;;;;;;;;;;4981922;28;20123;-78
2024/01/31 11:34:27;;;;;;;8.43;2.63;;;;;;;;;;4969329;28;20065;-77
2024/01/31 11:36:54;;;;;;;8.40;2.67;;;;;;;;;;4992920;28;20044;-77
2024/01/31 11:39:21;;;;;;;11.18;2.58;;;;;;;;;;4991180;28;21764;-78
2024/01/31 11:41:48;;;;;;;7.45;2.10;;;;;;;;;;4971935;28;20945;-77
2024/01/31 11:44:14;;;;;;;10.35;2.38;;;;;;;;;;4955656;28;20127;-77
2024/01/31 11:46:42;;;;;;;9.23;2.47;;;;;;;;;;4970265;28;20030;-79
2024/01/31 11:49:12;;;;;;;8.20;2.17;;;;;;;;;;4972304;28;20030;-79
2024/01/31 11:51:40;;;;;;;8.52;1.77;;;;;;;;;;4989694;28;20105;-77
2024/01/31 11:54:07;;;;;;;7.60;2.08;;;;;;;;;;4989266;28;20042;-75
2024/01/31 11:56:35;;;;;;;9.95;2.42;;;;;;;;;;4984922;28;20261;-76
2024/01/31 11:59:05;;;;;;;8.70;2.30;;;;;;;;;;4989054;28;20100;-77
2024/01/31 12:01:32;;;;;;;7.75;2.20;;;;;;;;;;4987577;28;20085;-77
2024/01/31 12:04:01;;;;;;;8.13;2.33;;;;;;;;;;4968838;28;20037;-76
2024/01/31 12:06:29;;;;;;;8.60;2.33;;;;;;;;;;4987894;28;20053;-78
2024/01/31 12:08:57;;;;;;;11.30;2.60;;;;;;;;;;4971432;28;20044;-77
2024/01/31 12:11:26;;;;;;;9.77;2.42;;;;;;;;;;4970358;28;20041;-77
2024/01/31 12:13:54;;;;;;;6.32;1.77;;;;;;;;;;4991741;28;20087;-77
2024/01/31 12:16:23;;;;;;;8.60;3.05;;;;;;;;;;4969880;28;20044;-77
2024/01/31 12:19:00;;;;;;;10.25;2.97;;;;;;;;;;4972944;28;20042;-78
2024/01/31 12:21:27;;;;;;;7.75;2.50;;;;;;;;;;4969091;28;20122;-76
2024/01/31 12:23:54;;;;;;;8.60;2.45;;;;;;;;;;4986881;28;20052;-75
2024/01/31 12:26:22;;;;;;;8.13;2.10;;;;;;;;;;4971332;28;20069;-75
2024/01/31 12:28:54;;;;;;;8.63;3.13;;;;;;;;;;4989472;28;20033;-76
2024/01/31 12:31:22;;;;;;;10.65;2.50;;;;;;;;;;4988978;28;20108;-78
2024/01/31 12:33:48;;;;;;;10.13;2.58;;;;;;;;;;4991162;28;20025;-77
2024/01/31 12:36:16;;;;;;;8.88;2.90;;;;;;;;;;4972530;28;20048;-77
2024/01/31 12:38:42;;;;;;;8.45;3.17;;;;;;;;;;4987123;28;20108;-77
2024/01/31 12:41:08;;;;;;;7.20;2.35;;;;;;;;;;4990173;28;20034;-74
2024/01/31 12:43:35;;;;;;;9.55;2.63;;;;;;;;;;4987941;28;20025;-75
2024/01/31 12:46:04;;;;;;;9.23;2.40;;;;;;;;;;4970229;28;20572;-75
2024/01/31 12:48:31;;;;;;;8.80;2.58;;;;;;;;;;4989542;28;20026;-75
2024/01/31 12:50:58;;;;;;;7.93;2.00;;;;;;;;;;4990075;28;20540;-75
2024/01/31 12:53:25;;;;;;;7.80;3.20;;;;;;;;;;4970840;28;20858;-77
2024/01/31 12:55:52;;;;;;;8.70;2.40;;;;;;;;;;4989246;28;20030;-76
2024/01/31 12:58:18;;;;;;;8.05;2.22;;;;;;;;;;4956764;28;20042;-74
2024/01/31 13:00:46;;;;;;;8.27;2.25;;;;;;;;;;4992677;28;20514;-75
2024/01/31 13:03:13;;;;;;;10.77;2.60;;;;;;;;;;4991809;28;20029;-75
2024/01/31 13:05:41;;;;;;;7.13;2.35;;;;;;;;;;4986893;28;20057;-75
2024/01/31 13:08:07;;;;;;;8.25;3.30;;;;;;;;;;4954034;28;20952;-76
2024/01/31 13:10:35;;;;;;;7.95;2.50;;;;;;;;;;4986833;28;20058;-76
2024/01/31 13:13:01;;;;;;;7.18;2.78;;;;;;;;;;4971756;28;20049;-75
2024/01/31 13:15:28;;;;;;;9.07;3.08;;;;;;;;;;4987064;28;20025;-74
2024/01/31 13:17:55;;;;;;;9.65;2.70;;;;;;;;;;4964776;28;20099;-75
2024/01/31 13:20:23;;;;;;;8.35;2.50;;;;;;;;;;4966558;28;20034;-76
2024/01/31 13:22:50;;;;;;;8.50;2.83;;;;;;;;;;4969607;28;20521;-77
2024/01/31 13:25:16;;;;;;;8.85;3.40;;;;;;;;;;4971733;28;20038;-76
2024/01/31 13:27:43;;;;;;;7.03;2.20;;;;;;;;;;4968859;28;20034;-74
2024/01/31 13:30:10;;;;;;;9.10;2.53;;;;;;;;;;4954875;28;20045;-74
2024/01/31 13:32:38;;;;;;;9.27;2.80;;;;;;;;;;4965202;28;20581;-76
2024/01/31 13:35:06;;;;;;;7.97;2.50;;;;;;;;;;4966000;28;20208;-75
2024/01/31 13:37:34;;;;;;;9.55;2.78;;;;;;;;;;4948200;28;20041;-76
2024/01/31 13:40:01;;;;;;;9.23;2.80;;;;;;;;;;4972042;28;20026;-76
2024/01/31 13:42:28;;;;;;;8.48;2.40;;;;;;;;;;4947495;28;20038;-75
2024/01/31 13:44:55;;;;;;;8.95;2.50;;;;;;;;;;4950304;28;20085;-76
2024/01/31 13:47:24;;;;;;;8.43;2.63;;;;;;;;;;4967433;28;20065;-77
2024/01/31 13:49:52;;;;;;;8.98;3.00;;;;;;;;;;4965087;28;20070;-75
2024/01/31 13:52:19;;;;;;;12.85;3.28;;;;;;;;;;4952922;28;21026;-75
2024/01/31 13:54:47;;;;;;;9.75;2.70;;;;;;;;;;4953918;28;20524;-76
2024/01/31 13:57:17;;;;;;;8.38;2.88;;;;;;;;;;4951543;28;20054;-76
2024/01/31 13:59:43;;;;;;;9.93;3.00;;;;;;;;;;4952879;28;20042;-76
2024/01/31 14:02:10;;;;;;;9.48;3.80;;;;;;;;;;4955695;28;20034;-74
2024/01/31 14:04:36;;;;;;;8.25;3.35;;;;;;;;;;4949816;28;20042;-75
2024/01/31 14:07:02;;;;;;;8.68;3.00;;;;;;;;;;4950994;28;20722;-76
2024/01/31 14:09:29;;;;;;;20.17;14.98;;;;;;;;;;4954494;28;20038;-76
2024/01/31 14:11:56;;;;;;;12.82;6.93;;;;;;;;;;4954928;28;20046;-76
2024/01/31 14:14:23;;;;;;;11.52;5.38;;;;;;;;;;4968089;28;20034;-74
2024/01/31 14:16:51;;;;;;;12.50;7.10;;;;;;;;;;4951275;28;20491;-76
2024/01/31 14:19:20;;;;;;;11.02;4.90;;;;;;;;;;4970592;28;20148;-76
2024/01/31 14:21:46;;;;;;;11.88;5.90;;;;;;;;;;4996931;28;20124;-76
2024/01/31 14:24:12;;;;;;;10.55;6.00;;;;;;;;;;4978419;28;20041;-74
2024/01/31 14:26:38;;;;;;;10.65;3.58;;;;;;;;;;4978198;28;20950;-73
2024/01/31 14:29:06;;;;;;;9.75;2.92;;;;;;;;;;4975325;28;20034;-75
2024/01/31 14:31:34;;;;;;;7.70;2.80;;;;;;;;;;5007113;28;20033;-75
2024/01/31 14:34:01;;;;;;;10.50;2.67;;;;;;;;;;4982794;28;20044;-75
2024/01/31 14:36:28;;;;;;;12.13;5.78;;;;;;;;;;4980886;28;20029;-75
2024/01/31 14:38:54;;;;;;;11.18;5.80;;;;;;;;;;5002636;28;20100;-76
2024/01/31 14:41:21;;;;;;;9.57;2.92;;;;;;;;;;4994486;28;20018;-75